createdAt,value
2022-10-07T00:01:11.376Z,48.66
2022-10-07T00:03:39.749Z,48.46
2022-10-07T00:06:17.002Z,48.34
2022-10-07T00:08:50.425Z,48.58
2022-10-07T00:11:26.281Z,48.57
2022-10-07T00:13:57.929Z,48.61
2022-10-07T00:16:35.010Z,48.62
2022-10-07T00:19:08.009Z,48.71
2022-10-07T00:21:37.955Z,48.58
2022-10-07T00:24:08.088Z,48.67
2022-10-07T00:26:37.265Z,48.42
2022-10-07T00:29:07.111Z,48.58
2022-10-07T00:31:36.913Z,48.60
2022-10-07T00:34:05.849Z,48.31
2022-10-07T00:36:37.432Z,48.43
2022-10-07T00:39:10.054Z,48.31
2022-10-07T00:41:50.422Z,48.30
2022-10-07T00:44:30.037Z,48.44
2022-10-07T00:47:00.965Z,48.32
2022-10-07T00:49:30.206Z,47.80
2022-10-07T00:51:58.675Z,48.08
2022-10-07T00:54:26.481Z,47.65
2022-10-07T00:56:54.299Z,47.40
2022-10-07T00:59:22.238Z,47.60
2022-10-07T01:01:50.638Z,47.32
2022-10-07T01:04:20.312Z,47.38
2022-10-07T01:06:48.093Z,47.44
2022-10-07T01:09:16.146Z,47.17
2022-10-07T01:12:05.675Z,47.44
2022-10-07T01:14:52.419Z,46.99
2022-10-07T01:17:29.549Z,47.34
2022-10-07T01:20:12.431Z,47.13
2022-10-07T01:23:17.450Z,47.21
2022-10-07T01:25:50.674Z,47.12
2022-10-07T01:29:04.145Z,47.37
2022-10-07T01:31:39.169Z,47.28
2022-10-07T01:34:10.389Z,47.32
2022-10-07T01:36:40.474Z,47.59
2022-10-07T01:39:15.775Z,47.36
2022-10-07T01:41:43.812Z,47.31
2022-10-07T01:44:13.886Z,47.42
2022-10-07T01:46:44.013Z,47.63
2022-10-07T01:49:12.247Z,47.41
2022-10-07T01:51:58.082Z,47.26
2022-10-07T01:54:34.102Z,47.29
2022-10-07T01:57:39.173Z,47.28
2022-10-07T02:00:14.646Z,47.18
2022-10-07T02:03:10.849Z,47.28
2022-10-07T02:06:30.953Z,47.36
2022-10-07T02:09:06.533Z,47.46
2022-10-07T02:11:42.356Z,47.51
2022-10-07T02:14:29.664Z,47.57
2022-10-07T02:17:05.489Z,48.32
2022-10-07T02:19:39.486Z,48.41
2022-10-07T02:22:11.229Z,48.48
2022-10-07T02:24:40.591Z,48.71
2022-10-07T02:27:16.305Z,48.43
2022-10-07T02:29:51.469Z,49.03
2022-10-07T02:32:25.453Z,49.03
2022-10-07T02:35:00.231Z,48.91
2022-10-07T02:37:35.384Z,49.20
2022-10-07T02:40:12.222Z,49.42
2022-10-07T02:42:53.027Z,49.41
2022-10-07T02:45:50.094Z,49.45
2022-10-07T02:48:32.999Z,49.78
2022-10-07T02:51:06.786Z,49.91
2022-10-07T02:53:35.443Z,49.32
2022-10-07T02:56:05.280Z,49.48
2022-10-07T02:58:35.696Z,49.70
2022-10-07T03:01:05.840Z,49.99
2022-10-07T03:03:33.714Z,49.91
2022-10-07T03:06:06.263Z,49.70
2022-10-07T03:08:36.614Z,49.61
2022-10-07T03:11:04.446Z,49.34
2022-10-07T03:13:32.534Z,49.24
2022-10-07T03:16:05.576Z,49.01
2022-10-07T03:18:34.565Z,49.30
2022-10-07T03:21:18.595Z,49.32
2022-10-07T03:23:52.678Z,49.44
2022-10-07T03:26:22.330Z,49.52
2022-10-07T03:28:51.069Z,49.66
2022-10-07T03:31:20.364Z,49.79
2022-10-07T03:33:51.036Z,49.30
2022-10-07T03:36:19.883Z,49.59
2022-10-07T03:38:49.381Z,49.33
2022-10-07T03:41:19.342Z,49.33
2022-10-07T03:43:50.449Z,49.31
2022-10-07T03:46:22.495Z,48.86
2022-10-07T03:48:52.486Z,48.87
2022-10-07T03:51:20.930Z,48.93
2022-10-07T03:53:48.856Z,48.95
2022-10-07T03:56:17.561Z,49.11
2022-10-07T03:58:45.367Z,48.94
2022-10-07T04:01:17.898Z,49.24
2022-10-07T04:03:53.779Z,48.74
2022-10-07T04:06:21.720Z,48.72
2022-10-07T04:08:58.461Z,48.86
2022-10-07T04:11:26.467Z,48.58
2022-10-07T04:13:56.482Z,48.76
2022-10-07T04:16:28.180Z,48.80
2022-10-07T04:18:57.977Z,49.01
2022-10-07T04:21:28.333Z,48.89
2022-10-07T04:23:56.225Z,48.96
2022-10-07T04:26:24.152Z,48.99
2022-10-07T04:28:52.482Z,49.06
2022-10-07T04:31:23.024Z,49.03
2022-10-07T04:34:00.764Z,48.86
2022-10-07T04:36:36.155Z,48.85
2022-10-07T04:39:16.000Z,48.98
2022-10-07T04:41:54.914Z,49.15
2022-10-07T04:44:27.814Z,49.20
2022-10-07T04:47:03.935Z,49.29
2022-10-07T04:49:32.698Z,49.53
2022-10-07T04:52:02.030Z,49.59
2022-10-07T04:54:35.779Z,49.27
2022-10-07T04:57:03.835Z,49.54
2022-10-07T04:59:34.388Z,49.63
2022-10-07T05:02:02.962Z,49.51
2022-10-07T05:04:33.663Z,49.78
2022-10-07T05:07:03.306Z,49.73
2022-10-07T05:09:32.321Z,49.93
2022-10-07T05:12:01.164Z,49.98
2022-10-07T05:14:32.122Z,50.09
2022-10-07T05:17:00.596Z,50.31
2022-10-07T05:19:33.215Z,50.46
2022-10-07T05:22:01.407Z,50.31
2022-10-07T05:24:30.150Z,50.53
2022-10-07T05:26:58.033Z,50.69
2022-10-07T05:29:25.835Z,50.68
2022-10-07T05:31:55.213Z,50.79
2022-10-07T05:34:26.350Z,50.92
2022-10-07T05:36:55.735Z,50.83
2022-10-07T05:39:24.195Z,51.14
2022-10-07T05:41:56.241Z,51.08
2022-10-07T05:44:31.417Z,51.11
2022-10-07T05:47:02.055Z,51.22
2022-10-07T05:49:30.889Z,51.40
2022-10-07T05:51:59.485Z,51.56
2022-10-07T05:54:27.386Z,51.37
2022-10-07T05:56:57.195Z,51.23
2022-10-07T05:59:25.645Z,51.38
2022-10-07T06:01:57.854Z,51.39
2022-10-07T06:04:27.576Z,51.67
2022-10-07T06:06:55.446Z,51.60
2022-10-07T06:09:42.058Z,51.73
2022-10-07T06:12:35.046Z,51.74
2022-10-07T06:15:09.923Z,51.83
2022-10-07T06:17:45.170Z,52.04
2022-10-07T06:20:15.626Z,51.88
2022-10-07T06:22:44.652Z,52.16
2022-10-07T06:25:14.562Z,52.00
2022-10-07T06:27:43.444Z,52.24
2022-10-07T06:30:13.227Z,52.43
2022-10-07T06:32:41.037Z,52.46
2022-10-07T06:35:09.343Z,52.43
2022-10-07T06:37:39.256Z,52.54
2022-10-07T06:40:09.296Z,52.76
2022-10-07T06:42:37.184Z,52.62
2022-10-07T06:45:19.640Z,52.84
2022-10-07T06:47:49.880Z,52.73
2022-10-07T06:50:18.001Z,52.78
2022-10-07T06:52:45.818Z,52.57
2022-10-07T06:55:13.998Z,52.86
2022-10-07T06:57:45.990Z,52.74
2022-10-07T07:00:17.229Z,52.90
2022-10-07T07:02:45.943Z,52.92
2022-10-07T07:05:15.584Z,52.96
2022-10-07T07:07:45.725Z,52.96
2022-10-07T07:10:13.689Z,52.81
2022-10-07T07:12:45.093Z,52.97
2022-10-07T07:15:13.163Z,53.19
2022-10-07T07:17:41.493Z,53.08
2022-10-07T07:20:11.277Z,53.04
2022-10-07T07:22:40.720Z,52.89
2022-10-07T07:25:10.145Z,53.05
2022-10-07T07:27:39.070Z,52.68
2022-10-07T07:30:09.195Z,52.78
2022-10-07T07:32:37.012Z,52.93
2022-10-07T07:35:06.299Z,52.78
2022-10-07T07:37:34.400Z,52.66
2022-10-07T07:40:04.033Z,52.54
2022-10-07T07:42:33.634Z,52.57
2022-10-07T07:45:01.518Z,52.57
2022-10-07T07:47:29.866Z,52.63
2022-10-07T07:49:57.891Z,52.49
2022-10-07T07:52:30.684Z,52.60
2022-10-07T07:55:02.691Z,52.64
2022-10-07T07:57:31.299Z,52.58
2022-10-07T08:00:05.384Z,52.49
2022-10-07T08:02:43.054Z,52.50
2022-10-07T08:05:18.007Z,52.50
2022-10-07T08:07:50.026Z,52.50
2022-10-07T08:10:17.827Z,52.39
2022-10-07T08:12:45.638Z,52.42
2022-10-07T08:15:13.735Z,52.51
2022-10-07T08:17:41.565Z,52.18
2022-10-07T08:20:10.909Z,52.14
2022-10-07T08:22:39.678Z,52.05
2022-10-07T08:25:08.228Z,52.01
2022-10-07T08:27:36.582Z,52.05
2022-10-07T08:30:05.066Z,51.96
2022-10-07T08:32:32.897Z,51.64
2022-10-07T08:35:00.739Z,51.76
2022-10-07T08:37:28.705Z,52.00
2022-10-07T08:39:56.485Z,51.73
2022-10-07T08:42:39.633Z,51.64
2022-10-07T08:45:14.125Z,51.37
2022-10-07T08:47:46.108Z,51.08
2022-10-07T08:50:32.192Z,51.17
2022-10-07T08:53:07.024Z,51.06
2022-10-07T08:55:52.373Z,51.22
2022-10-07T08:58:43.423Z,51.02
2022-10-07T09:01:19.234Z,50.77
2022-10-07T09:04:24.517Z,50.76
2022-10-07T09:07:38.000Z,51.01
2022-10-07T09:10:28.479Z,51.04
2022-10-07T09:13:23.082Z,50.98
2022-10-07T09:16:26.586Z,50.84
2022-10-07T09:18:57.799Z,50.23
2022-10-07T09:21:41.528Z,50.35
2022-10-07T09:24:26.749Z,50.42
2022-10-07T09:27:01.689Z,50.23
2022-10-07T09:29:30.928Z,49.85
2022-10-07T09:31:59.246Z,50.06
2022-10-07T09:34:31.172Z,50.11
2022-10-07T09:37:26.763Z,50.17
2022-10-07T09:40:16.235Z,49.81
2022-10-07T09:42:46.031Z,49.79
2022-10-07T09:45:28.146Z,50.12
2022-10-07T09:48:04.600Z,49.81
2022-10-07T09:50:43.515Z,49.64
2022-10-07T09:53:33.554Z,49.88
2022-10-07T09:56:01.371Z,49.51
2022-10-07T09:58:32.181Z,49.98
2022-10-07T10:01:02.704Z,49.77
2022-10-07T10:03:34.585Z,49.44
2022-10-07T10:06:12.412Z,49.63
2022-10-07T10:08:43.999Z,49.70
2022-10-07T10:11:20.986Z,49.53
2022-10-07T10:13:51.818Z,49.07
2022-10-07T10:16:26.035Z,49.47
2022-10-07T10:19:18.980Z,49.36
2022-10-07T10:21:56.269Z,48.66
2022-10-07T10:24:45.899Z,48.43
2022-10-07T10:27:21.191Z,48.91
2022-10-07T10:30:05.536Z,48.48
2022-10-07T10:33:22.640Z,48.51
2022-10-07T10:36:21.604Z,48.51
2022-10-07T10:39:21.002Z,48.01
2022-10-07T10:42:00.051Z,48.25
2022-10-07T10:44:54.481Z,48.62
2022-10-07T10:48:00.902Z,48.04
2022-10-07T10:51:03.042Z,47.79
2022-10-07T10:53:56.827Z,47.50
2022-10-07T10:56:45.932Z,47.48
2022-10-07T10:59:34.583Z,47.82
2022-10-07T11:02:40.910Z,47.64
2022-10-07T11:05:33.960Z,47.45
2022-10-07T11:08:37.611Z,47.38
2022-10-07T11:11:27.928Z,47.24
2022-10-07T11:14:26.556Z,47.42
2022-10-07T11:17:04.720Z,47.26
2022-10-07T11:19:43.371Z,46.96
2022-10-07T11:22:23.796Z,47.21
2022-10-07T11:24:57.782Z,47.01
2022-10-07T11:27:25.380Z,47.08
2022-10-07T11:30:18.542Z,46.53
2022-10-07T11:33:12.752Z,46.90
2022-10-07T11:35:53.760Z,46.78
2022-10-07T11:38:34.464Z,47.29
2022-10-07T11:41:22.672Z,47.41
2022-10-07T11:43:57.128Z,47.21
2022-10-07T11:46:34.337Z,47.21
2022-10-07T11:49:40.029Z,46.76
2022-10-07T11:52:34.736Z,47.02
2022-10-07T11:55:16.315Z,46.73
2022-10-07T11:57:56.492Z,46.75
2022-10-07T12:00:32.991Z,46.54
2022-10-07T12:03:18.808Z,46.70
2022-10-07T12:05:49.816Z,46.67
2022-10-07T12:08:42.065Z,46.68
2022-10-07T12:11:12.888Z,46.59
2022-10-07T12:13:46.729Z,46.10
2022-10-07T12:16:32.265Z,46.07
2022-10-07T12:19:22.318Z,46.13
2022-10-07T12:22:00.205Z,45.50
2022-10-07T12:24:36.411Z,45.41
2022-10-07T12:27:13.411Z,45.26
2022-10-07T12:30:04.384Z,45.27
2022-10-07T12:32:52.054Z,45.24
2022-10-07T12:35:39.759Z,44.94
2022-10-07T12:38:14.778Z,44.64
2022-10-07T12:40:47.880Z,44.62
2022-10-07T12:43:34.604Z,44.58
2022-10-07T12:46:12.224Z,44.30
2022-10-07T12:49:04.106Z,44.86
2022-10-07T12:51:38.764Z,44.26
2022-10-07T12:54:44.820Z,44.40
2022-10-07T12:57:18.835Z,43.82
2022-10-07T13:00:10.639Z,44.17
2022-10-07T13:03:32.381Z,43.84
2022-10-07T13:06:27.625Z,43.92
2022-10-07T13:09:44.158Z,43.89
2022-10-07T13:12:56.005Z,43.91
2022-10-07T13:15:44.047Z,43.96
2022-10-07T13:18:31.555Z,43.68
2022-10-07T13:21:09.385Z,43.58
2022-10-07T13:23:37.584Z,43.38
2022-10-07T13:26:05.773Z,43.23
2022-10-07T13:28:45.415Z,43.10
2022-10-07T13:31:32.906Z,43.40
2022-10-07T13:34:14.207Z,43.11
2022-10-07T13:36:43.802Z,42.53
2022-10-07T13:39:23.155Z,43.00
2022-10-07T13:41:58.641Z,42.80
2022-10-07T13:44:32.117Z,43.04
2022-10-07T13:47:07.243Z,43.15
2022-10-07T13:49:48.345Z,43.01
2022-10-07T13:52:35.295Z,43.28
2022-10-07T13:55:03.437Z,42.86
2022-10-07T13:57:35.223Z,42.84
2022-10-07T14:00:04.554Z,42.91
2022-10-07T14:02:41.523Z,42.41
2022-10-07T14:05:25.900Z,42.60
2022-10-07T14:07:59.485Z,42.32
2022-10-07T14:10:31.040Z,41.53
2022-10-07T14:13:04.036Z,41.59
2022-10-07T14:15:36.205Z,41.78
2022-10-07T14:18:10.864Z,42.69
2022-10-07T14:20:51.071Z,42.81
2022-10-07T14:23:26.256Z,42.88
2022-10-07T14:25:57.488Z,42.91
2022-10-07T14:28:25.289Z,42.90
2022-10-07T14:31:41.994Z,43.08
2022-10-07T14:34:40.972Z,43.15
2022-10-07T14:37:31.842Z,43.15
2022-10-07T14:40:02.185Z,43.68
2022-10-07T14:42:36.938Z,43.65
2022-10-07T14:45:09.765Z,44.11
2022-10-07T14:47:41.463Z,43.72
2022-10-07T14:50:10.177Z,43.93
2022-10-07T14:52:47.041Z,44.13
2022-10-07T14:55:29.315Z,44.33
2022-10-07T14:57:57.129Z,44.66
2022-10-07T15:00:29.451Z,44.96
2022-10-07T15:02:58.266Z,45.19
2022-10-07T15:05:31.284Z,45.14
2022-10-07T15:08:00.253Z,45.36
2022-10-07T15:10:28.278Z,45.30
2022-10-07T15:12:56.821Z,45.78
2022-10-07T15:15:24.666Z,45.72
2022-10-07T15:17:52.431Z,45.81
2022-10-07T15:20:21.352Z,45.79
2022-10-07T15:22:51.191Z,45.98
2022-10-07T15:25:19.447Z,46.42
2022-10-07T15:27:47.287Z,46.80
2022-10-07T15:30:15.199Z,47.17
2022-10-07T15:32:43.655Z,47.15
2022-10-07T15:35:12.772Z,47.19
2022-10-07T15:37:46.025Z,47.14
2022-10-07T15:40:15.192Z,47.26
2022-10-07T15:42:44.921Z,47.44
2022-10-07T15:45:13.811Z,47.34
2022-10-07T15:47:41.745Z,47.79
2022-10-07T15:50:11.630Z,48.09
2022-10-07T15:52:41.895Z,47.83
2022-10-07T15:55:09.972Z,48.11
2022-10-07T15:57:37.862Z,48.39
2022-10-07T16:00:06.762Z,48.11
2022-10-07T16:02:39.776Z,48.09
2022-10-07T16:05:09.567Z,48.76
2022-10-07T16:07:37.345Z,48.63
2022-10-07T16:10:08.514Z,49.00
2022-10-07T16:12:41.288Z,48.52
2022-10-07T16:15:09.780Z,48.57
2022-10-07T16:17:37.634Z,48.78
2022-10-07T16:20:11.048Z,48.58
2022-10-07T16:22:39.328Z,48.98
2022-10-07T16:25:07.631Z,49.12
2022-10-07T16:27:53.876Z,49.03
2022-10-07T16:30:40.324Z,48.96
2022-10-07T16:33:08.693Z,49.42
2022-10-07T16:35:36.504Z,49.71
2022-10-07T16:38:04.983Z,49.52
2022-10-07T16:40:32.817Z,49.80
2022-10-07T16:43:00.674Z,49.90
2022-10-07T16:45:28.461Z,50.11
2022-10-07T16:47:56.741Z,50.21
2022-10-07T16:50:24.731Z,50.40
2022-10-07T16:52:53.594Z,49.94
2022-10-07T16:55:23.018Z,50.15
2022-10-07T16:57:53.118Z,50.32
2022-10-07T17:00:21.436Z,50.53
2022-10-07T17:02:49.243Z,50.95
2022-10-07T17:05:18.280Z,50.67
2022-10-07T17:07:46.569Z,50.72
2022-10-07T17:10:14.730Z,50.85
2022-10-07T17:12:44.012Z,51.16
2022-10-07T17:15:11.974Z,50.89
2022-10-07T17:17:39.858Z,50.98
2022-10-07T17:20:10.164Z,50.93
2022-10-07T17:22:38.029Z,51.17
2022-10-07T17:25:07.778Z,51.47
2022-10-07T17:27:36.259Z,51.18
2022-10-07T17:30:04.987Z,51.57
2022-10-07T17:32:32.857Z,51.48
2022-10-07T17:35:00.674Z,50.99
2022-10-07T17:37:28.562Z,51.27
2022-10-07T17:39:56.506Z,51.32
2022-10-07T17:42:24.270Z,51.10
2022-10-07T17:44:52.100Z,51.40
2022-10-07T17:47:20.551Z,51.56
2022-10-07T17:49:48.980Z,51.52
2022-10-07T17:52:17.178Z,51.34
2022-10-07T17:54:44.986Z,51.66
2022-10-07T17:57:12.814Z,51.50
2022-10-07T17:59:40.672Z,52.13
2022-10-07T18:02:10.471Z,52.19
2022-10-07T18:04:38.511Z,52.53
2022-10-07T18:07:06.337Z,52.83
2022-10-07T18:09:34.232Z,53.08
2022-10-07T18:12:20.951Z,52.62
2022-10-07T18:15:07.277Z,53.00
2022-10-07T18:17:36.848Z,52.92
2022-10-07T18:20:10.317Z,52.99
2022-10-07T18:22:44.187Z,52.62
2022-10-07T18:25:12.238Z,52.98
2022-10-07T18:27:40.698Z,52.93
2022-10-07T18:30:09.641Z,53.01
2022-10-07T18:32:37.519Z,52.79
2022-10-07T18:35:06.633Z,52.70
2022-10-07T18:37:34.668Z,52.78
2022-10-07T18:40:02.508Z,52.61
2022-10-07T18:42:30.398Z,52.79
2022-10-07T18:44:58.330Z,52.90
2022-10-07T18:47:26.322Z,52.73
2022-10-07T18:49:57.127Z,52.77
2022-10-07T18:52:24.947Z,53.05
2022-10-07T18:54:52.808Z,52.93
2022-10-07T18:57:20.944Z,53.02
2022-10-07T18:59:48.736Z,53.02
2022-10-07T19:02:16.674Z,53.05
2022-10-07T19:04:44.526Z,53.04
2022-10-07T19:07:12.467Z,53.30
2022-10-07T19:09:40.296Z,53.15
2022-10-07T19:12:28.043Z,53.12
2022-10-07T19:14:55.912Z,53.01
2022-10-07T19:17:24.262Z,53.09
2022-10-07T19:19:52.189Z,53.19
2022-10-07T19:22:19.997Z,53.24
2022-10-07T19:25:06.691Z,53.17
2022-10-07T19:27:34.479Z,53.14
2022-10-07T19:30:02.356Z,53.13
2022-10-07T19:32:30.170Z,53.35
2022-10-07T19:34:58.234Z,53.31
2022-10-07T19:37:26.395Z,53.46
2022-10-07T19:39:54.418Z,53.58
2022-10-07T19:42:22.279Z,53.50
2022-10-07T19:44:50.131Z,53.70
2022-10-07T19:47:18.793Z,53.64
2022-10-07T19:49:49.185Z,53.86
2022-10-07T19:52:17.050Z,53.69
2022-10-07T19:54:46.108Z,53.95
2022-10-07T19:57:14.355Z,53.77
2022-10-07T19:59:42.148Z,53.88
2022-10-07T20:02:11.974Z,53.86
2022-10-07T20:04:41.378Z,53.68
2022-10-07T20:07:09.174Z,53.70
2022-10-07T20:09:37.026Z,53.46
2022-10-07T20:12:05.091Z,53.89
2022-10-07T20:14:33.782Z,53.88
2022-10-07T20:17:01.959Z,53.89
2022-10-07T20:19:29.915Z,54.24
2022-10-07T20:22:01.102Z,54.37
2022-10-07T20:24:28.876Z,54.26
2022-10-07T20:26:56.715Z,54.19
2022-10-07T20:29:24.835Z,54.23
2022-10-07T20:31:53.468Z,53.93
2022-10-07T20:34:21.324Z,54.19
2022-10-07T20:36:50.545Z,54.26
2022-10-07T20:39:39.612Z,54.22
2022-10-07T20:42:22.047Z,54.40
2022-10-07T20:44:51.121Z,54.57
2022-10-07T20:47:20.822Z,54.57
2022-10-07T20:49:50.894Z,54.69
2022-10-07T20:52:25.615Z,54.71
2022-10-07T20:54:54.065Z,54.69
2022-10-07T20:57:25.045Z,54.86
2022-10-07T20:59:53.272Z,54.79
2022-10-07T21:02:23.335Z,54.79
2022-10-07T21:04:51.541Z,54.80
2022-10-07T21:07:19.803Z,54.59
2022-10-07T21:09:48.472Z,54.69
2022-10-07T21:12:18.095Z,54.67
2022-10-07T21:14:48.010Z,54.67
2022-10-07T21:17:16.797Z,54.68
2022-10-07T21:19:44.675Z,54.69
2022-10-07T21:22:12.614Z,54.72
2022-10-07T21:24:40.408Z,54.54
2022-10-07T21:27:08.611Z,54.66
2022-10-07T21:29:40.722Z,54.83
2022-10-07T21:32:10.866Z,54.83
2022-10-07T21:34:38.905Z,54.98
2022-10-07T21:37:06.979Z,55.14
2022-10-07T21:39:34.827Z,55.10
2022-10-07T21:42:02.665Z,55.31
2022-10-07T21:44:33.290Z,55.27
2022-10-07T21:47:01.316Z,55.59
2022-10-07T21:49:29.205Z,55.63
2022-10-07T21:51:57.046Z,55.63
2022-10-07T21:54:24.900Z,55.62
2022-10-07T21:56:52.774Z,55.58
2022-10-07T21:59:20.868Z,55.61
2022-10-07T22:01:48.729Z,55.87
2022-10-07T22:04:18.381Z,56.06
2022-10-07T22:07:16.269Z,56.27
2022-10-07T22:09:44.066Z,56.08
2022-10-07T22:12:11.884Z,56.29
2022-10-07T22:14:40.190Z,56.38
2022-10-07T22:17:09.029Z,56.43
2022-10-07T22:19:36.845Z,56.50
2022-10-07T22:22:04.641Z,56.25
2022-10-07T22:24:33.074Z,56.31
2022-10-07T22:27:01.861Z,56.25
2022-10-07T22:29:29.711Z,56.17
2022-10-07T22:31:58.029Z,56.66
2022-10-07T22:34:44.402Z,56.54
2022-10-07T22:37:12.253Z,56.51
2022-10-07T22:39:41.194Z,56.49
2022-10-07T22:42:09.085Z,56.34
2022-10-07T22:44:36.882Z,56.37
2022-10-07T22:47:04.738Z,56.42
2022-10-07T22:49:32.565Z,56.46
2022-10-07T22:52:00.481Z,56.50
2022-10-07T22:54:29.798Z,56.77
2022-10-07T22:56:57.738Z,56.69
2022-10-07T22:59:25.547Z,56.63
2022-10-07T23:01:53.522Z,56.66
2022-10-07T23:04:21.511Z,56.54
2022-10-07T23:06:49.577Z,56.60
2022-10-07T23:09:17.465Z,56.32
2022-10-07T23:11:45.901Z,56.34
2022-10-07T23:14:13.921Z,56.34
2022-10-07T23:16:41.998Z,56.25
2022-10-07T23:19:09.866Z,56.22
2022-10-07T23:21:37.677Z,56.17
2022-10-07T23:24:08.009Z,56.28
2022-10-07T23:26:37.682Z,55.96
2022-10-07T23:29:07.679Z,56.03
2022-10-07T23:31:35.930Z,55.73
2022-10-07T23:34:04.925Z,55.75
2022-10-07T23:36:34.957Z,55.84
2022-10-07T23:39:02.954Z,55.67
2022-10-07T23:41:32.957Z,55.70
2022-10-07T23:44:02.532Z,55.68
2022-10-07T23:46:36.382Z,55.63
2022-10-07T23:49:04.535Z,55.61
2022-10-07T23:51:32.973Z,55.80
2022-10-07T23:54:03.408Z,55.60
2022-10-07T23:56:32.113Z,55.43
2022-10-07T23:59:01.673Z,55.52
